createdAt,value
2022-11-21T00:01:20.897Z,98165.73
2022-11-21T00:04:27.585Z,98163.48
2022-11-21T00:07:34.018Z,98167.27
2022-11-21T00:10:39.221Z,98162.38
2022-11-21T00:13:46.315Z,98163.55
2022-11-21T00:16:57.135Z,98154.83
2022-11-21T00:20:03.863Z,98148.77
2022-11-21T00:23:10.535Z,98147.68
2022-11-21T00:26:17.913Z,98153.77
2022-11-21T00:29:24.256Z,98159.00
2022-11-21T00:32:28.790Z,98166.96
2022-11-21T00:35:35.317Z,98161.27
2022-11-21T00:38:41.814Z,98154.41
2022-11-21T00:41:48.120Z,98148.90
2022-11-21T00:44:52.707Z,98151.36
2022-11-21T00:47:59.089Z,98153.35
2022-11-21T00:51:03.652Z,98156.34
2022-11-21T00:54:10.027Z,98154.81
2022-11-21T00:57:16.257Z,98153.65
2022-11-21T01:00:23.045Z,98161.35
2022-11-21T01:03:29.345Z,98160.22
2022-11-21T01:06:33.966Z,98159.89
2022-11-21T01:09:40.229Z,98157.59
2022-11-21T01:12:45.455Z,98151.94
2022-11-21T01:15:51.749Z,98153.14
2022-11-21T01:18:56.556Z,98151.65
2022-11-21T01:22:02.860Z,98149.48
2022-11-21T01:25:08.986Z,98155.17
2022-11-21T01:28:15.535Z,98154.93
2022-11-21T01:31:20.959Z,98151.04
2022-11-21T01:34:27.390Z,98146.02
2022-11-21T01:37:33.752Z,98146.55
2022-11-21T01:40:41.139Z,98148.96
2022-11-21T01:43:47.930Z,98143.96
2022-11-21T01:46:55.529Z,98145.56
2022-11-21T01:50:01.885Z,98145.48
2022-11-21T01:53:06.768Z,98140.55
2022-11-21T01:56:14.038Z,98143.59
2022-11-21T01:59:24.467Z,98141.66
2022-11-21T02:02:34.862Z,98139.71
2022-11-21T02:05:42.614Z,98140.31
2022-11-21T02:08:49.168Z,98141.12
2022-11-21T02:11:59.846Z,98140.45
2022-11-21T02:15:06.967Z,98137.63
2022-11-21T02:18:13.861Z,98137.91
2022-11-21T02:21:28.192Z,98141.48
2022-11-21T02:24:45.222Z,98139.96
2022-11-21T02:27:56.488Z,98135.10
2022-11-21T02:31:02.756Z,98122.59
2022-11-21T02:34:07.278Z,98118.79
2022-11-21T02:37:13.717Z,98119.26
2022-11-21T02:40:25.625Z,98117.23
2022-11-21T02:43:36.993Z,98112.06
2022-11-21T02:46:50.979Z,98116.58
2022-11-21T02:50:03.311Z,98118.30
2022-11-21T02:53:11.431Z,98117.55
2022-11-21T02:56:17.673Z,98120.05
2022-11-21T02:59:24.132Z,98116.02
2022-11-21T03:02:28.697Z,98111.23
2022-11-21T03:05:35.303Z,98112.27
2022-11-21T03:08:41.591Z,98110.35
2022-11-21T03:11:46.093Z,98112.01
2022-11-21T03:14:52.461Z,98115.31
2022-11-21T03:17:59.134Z,98115.24
2022-11-21T03:21:05.872Z,98114.39
2022-11-21T03:24:12.827Z,98121.00
2022-11-21T03:27:19.278Z,98119.14
2022-11-21T03:30:27.267Z,98118.71
2022-11-21T03:33:33.554Z,98115.90
2022-11-21T03:36:38.212Z,98112.41
2022-11-21T03:39:44.487Z,98110.91
2022-11-21T03:42:49.122Z,98112.13
2022-11-21T03:45:55.592Z,98113.13
2022-11-21T03:49:02.056Z,98113.08
2022-11-21T03:52:08.474Z,98115.58
2022-11-21T03:55:15.311Z,98109.61
2022-11-21T03:58:21.481Z,98104.45
2022-11-21T04:01:31.273Z,98105.47
2022-11-21T04:04:40.137Z,98102.46
2022-11-21T04:07:46.581Z,98101.52
2022-11-21T04:10:54.298Z,98103.79
2022-11-21T04:14:00.542Z,98095.80
2022-11-21T04:17:05.114Z,98099.51
2022-11-21T04:20:13.085Z,98097.19
2022-11-21T04:23:19.254Z,98093.54
2022-11-21T04:26:25.652Z,98092.55
2022-11-21T04:29:31.816Z,98089.33
2022-11-21T04:32:37.974Z,98095.07
2022-11-21T04:35:44.672Z,98106.66
2022-11-21T04:38:50.789Z,98109.50
2022-11-21T04:41:56.789Z,98104.29
2022-11-21T04:45:02.841Z,98100.73
2022-11-21T04:48:09.311Z,98099.75
2022-11-21T04:51:15.410Z,98104.33
2022-11-21T04:54:21.525Z,98105.62
2022-11-21T04:57:29.134Z,98104.54
2022-11-21T05:00:36.121Z,98099.05
2022-11-21T05:03:42.484Z,98091.87
2022-11-21T05:06:46.885Z,98085.41
2022-11-21T05:09:52.883Z,98088.81
2022-11-21T05:13:20.333Z,98087.17
2022-11-21T05:16:26.608Z,98081.13
2022-11-21T05:19:31.125Z,98070.49
2022-11-21T05:22:37.352Z,98066.55
2022-11-21T05:25:43.723Z,98065.63
2022-11-21T05:28:49.711Z,98060.58
2022-11-21T05:31:55.800Z,98053.00
2022-11-21T05:35:01.885Z,98049.79
2022-11-21T05:38:07.924Z,98039.08
2022-11-21T05:41:14.013Z,98037.96
2022-11-21T05:44:20.426Z,98035.45
2022-11-21T05:47:26.557Z,98030.65
2022-11-21T05:50:32.564Z,98026.05
2022-11-21T05:53:39.189Z,98021.88
2022-11-21T05:56:45.541Z,98021.41
2022-11-21T05:59:50.020Z,98021.30
2022-11-21T06:03:16.103Z,98025.23
2022-11-21T06:06:25.004Z,98028.11
2022-11-21T06:09:31.245Z,98027.70
2022-11-21T06:12:37.409Z,98030.88
2022-11-21T06:15:41.920Z,98028.10
2022-11-21T06:18:50.028Z,98023.41
2022-11-21T06:21:57.851Z,98023.40
2022-11-21T06:25:03.900Z,98022.55
2022-11-21T06:28:10.067Z,98021.09
2022-11-21T06:31:17.769Z,98019.57
2022-11-21T06:34:23.936Z,98022.30
2022-11-21T06:37:30.059Z,98022.04
2022-11-21T06:40:36.192Z,98021.41
2022-11-21T06:43:42.866Z,98021.31
2022-11-21T06:46:51.472Z,98019.23
2022-11-21T06:49:57.981Z,98016.61
2022-11-21T06:53:04.221Z,98015.27
2022-11-21T06:56:08.724Z,98011.71
2022-11-21T06:59:14.797Z,98012.73
2022-11-21T07:02:20.946Z,98014.63
2022-11-21T07:05:27.014Z,98010.75
2022-11-21T07:08:35.524Z,98011.08
2022-11-21T07:11:41.688Z,98002.41
2022-11-21T07:14:47.809Z,97998.55
2022-11-21T07:17:53.971Z,98001.48
2022-11-21T07:21:02.985Z,98001.08
2022-11-21T07:24:10.034Z,98003.29
2022-11-21T07:27:16.253Z,98003.87
2022-11-21T07:30:20.885Z,98001.18
2022-11-21T07:33:27.498Z,97992.05
2022-11-21T07:36:33.926Z,97994.33
2022-11-21T07:39:40.053Z,97992.92
2022-11-21T07:42:46.337Z,97994.57
2022-11-21T07:45:50.798Z,97987.16
2022-11-21T07:49:01.962Z,97977.96
2022-11-21T07:52:09.317Z,97971.38
2022-11-21T07:55:15.485Z,97973.19
2022-11-21T07:58:21.512Z,97971.11
2022-11-21T08:01:27.840Z,97972.12
2022-11-21T08:04:34.115Z,97966.61
2022-11-21T08:07:38.711Z,97959.55
2022-11-21T08:10:47.089Z,97957.60
2022-11-21T08:13:53.150Z,97958.86
2022-11-21T08:16:59.210Z,97961.56
2022-11-21T08:20:05.757Z,97957.52
2022-11-21T08:23:12.028Z,97956.18
2022-11-21T08:26:16.692Z,97952.79
2022-11-21T08:29:22.750Z,97954.63
2022-11-21T08:32:29.007Z,97955.00
2022-11-21T08:35:33.707Z,97950.92
2022-11-21T08:38:39.921Z,97947.51
2022-11-21T08:42:04.505Z,97950.39
2022-11-21T08:45:11.965Z,97951.24
2022-11-21T08:48:18.058Z,97946.63
2022-11-21T08:51:24.651Z,97945.17
2022-11-21T08:54:30.912Z,97949.48
2022-11-21T08:57:40.557Z,97948.90
2022-11-21T09:00:46.671Z,97945.14
2022-11-21T09:03:52.686Z,97946.70
2022-11-21T09:06:58.905Z,97948.31
2022-11-21T09:10:05.374Z,97951.14
2022-11-21T09:13:11.422Z,97952.26
2022-11-21T09:16:34.933Z,97950.67
2022-11-21T09:19:41.097Z,97946.95
2022-11-21T09:22:47.189Z,97948.96
2022-11-21T09:25:53.330Z,97946.73
2022-11-21T09:28:59.468Z,97936.58
2022-11-21T09:32:05.917Z,97927.60
2022-11-21T09:35:12.384Z,97930.45
2022-11-21T09:38:23.641Z,97931.05
2022-11-21T09:41:53.401Z,97927.55
2022-11-21T09:45:09.308Z,97923.02
2022-11-21T09:48:19.044Z,97919.60
2022-11-21T09:51:27.240Z,97920.05
2022-11-21T09:54:37.949Z,97914.59
2022-11-21T09:57:44.357Z,97912.70
2022-11-21T10:00:53.825Z,97911.80
2022-11-21T10:04:02.996Z,97910.98
2022-11-21T10:07:14.776Z,97907.44
2022-11-21T10:10:30.588Z,97907.30
2022-11-21T10:13:48.031Z,97901.15
2022-11-21T10:17:01.811Z,97899.68
2022-11-21T10:20:23.188Z,97899.30
2022-11-21T10:23:44.278Z,97900.34
2022-11-21T10:26:55.509Z,97897.41
2022-11-21T10:30:06.545Z,97894.82
2022-11-21T10:33:17.010Z,97890.74
2022-11-21T10:36:29.738Z,97884.91
2022-11-21T10:39:42.850Z,97886.00
2022-11-21T10:42:57.102Z,97881.70
2022-11-21T10:46:03.226Z,97882.65
2022-11-21T10:49:14.604Z,97880.52
2022-11-21T10:52:26.873Z,97874.41
2022-11-21T10:55:33.118Z,97865.05
2022-11-21T10:58:45.636Z,97861.86
2022-11-21T11:01:59.749Z,97859.14
2022-11-21T11:05:23.181Z,97860.48
2022-11-21T11:08:32.004Z,97860.83
2022-11-21T11:11:38.143Z,97857.02
2022-11-21T11:14:51.173Z,97856.59
2022-11-21T11:18:05.833Z,97855.07
2022-11-21T11:21:21.719Z,97851.39
2022-11-21T11:24:29.131Z,97851.23
2022-11-21T11:27:38.549Z,97851.04
2022-11-21T11:30:46.153Z,97846.36
2022-11-21T11:33:57.449Z,97849.20
2022-11-21T11:37:14.808Z,97849.99
2022-11-21T11:40:27.237Z,97842.25
2022-11-21T11:43:58.466Z,97839.94
2022-11-21T11:47:32.181Z,97832.84
2022-11-21T11:50:42.984Z,97832.57
2022-11-21T11:53:56.159Z,97829.55
2022-11-21T11:57:07.379Z,97829.41
2022-11-21T12:00:28.424Z,97829.86
2022-11-21T12:03:45.249Z,97825.06
2022-11-21T12:10:26.038Z,97817.90
2022-11-21T12:13:35.205Z,97814.83
2022-11-21T12:16:43.129Z,97811.16
2022-11-21T12:19:52.311Z,97812.27
2022-11-21T12:22:58.901Z,97815.66
2022-11-21T12:26:18.159Z,97814.80
2022-11-21T12:29:43.371Z,97812.10
2022-11-21T12:33:08.501Z,97808.33
2022-11-21T12:36:24.928Z,97800.59
2022-11-21T12:39:55.880Z,97798.00
2022-11-21T12:43:15.585Z,97799.10
2022-11-21T12:46:26.852Z,97801.27
2022-11-21T12:50:02.874Z,97796.21
2022-11-21T12:53:36.048Z,97798.69
2022-11-21T12:56:50.664Z,97799.86
2022-11-21T13:00:13.241Z,97804.40
2022-11-21T13:03:33.984Z,97807.02
2022-11-21T13:06:42.951Z,97813.57
2022-11-21T13:09:53.340Z,97814.64
2022-11-21T13:13:05.243Z,97812.25
2022-11-21T13:16:36.743Z,97812.89
2022-11-21T13:19:51.779Z,97813.45
2022-11-21T13:23:28.875Z,97813.79
2022-11-21T13:26:57.053Z,97811.34
2022-11-21T13:30:20.828Z,97814.33
2022-11-21T13:34:02.322Z,97814.80
2022-11-21T13:37:08.895Z,97816.81
2022-11-21T13:40:37.761Z,97816.84
2022-11-21T13:43:44.290Z,97813.30
2022-11-21T13:47:04.248Z,97813.55
2022-11-21T13:50:17.662Z,97812.75
2022-11-21T13:53:58.171Z,97809.14
2022-11-21T13:57:16.296Z,97805.32
2022-11-21T14:00:36.899Z,97801.48
2022-11-21T14:03:54.861Z,97799.16
2022-11-21T14:07:23.735Z,97794.79
2022-11-21T14:10:35.917Z,97795.59
2022-11-21T14:13:48.100Z,97791.28
2022-11-21T14:17:02.482Z,97794.96
2022-11-21T14:20:20.811Z,97797.95
2022-11-21T14:23:30.470Z,97800.98
2022-11-21T14:26:41.457Z,97794.60
2022-11-21T14:29:47.501Z,97793.84
2022-11-21T14:32:54.587Z,97795.80
2022-11-21T14:36:04.921Z,97796.39
2022-11-21T14:42:43.945Z,97798.96
2022-11-21T14:45:53.092Z,97803.34
2022-11-21T14:49:11.085Z,97806.02
2022-11-21T14:52:22.410Z,97808.20
2022-11-21T14:55:33.646Z,97808.91
2022-11-21T14:58:41.656Z,97811.30
2022-11-21T15:01:58.552Z,97814.42
2022-11-21T15:05:06.590Z,97815.86
2022-11-21T15:11:44.913Z,97815.84
2022-11-21T15:14:55.535Z,97816.27
2022-11-21T15:18:26.288Z,97815.96
2022-11-21T15:21:29.572Z,97813.67
2022-11-21T15:24:37.757Z,97811.33
2022-11-21T15:27:44.784Z,97810.50
2022-11-21T15:31:11.117Z,97808.84
2022-11-21T15:34:35.422Z,97805.30
2022-11-21T15:37:54.661Z,97803.81
2022-11-21T15:41:11.759Z,97805.92
2022-11-21T15:44:25.231Z,97809.11
2022-11-21T15:47:31.317Z,97811.37
2022-11-21T15:50:38.237Z,97816.14
2022-11-21T15:53:44.666Z,97818.08
2022-11-21T15:56:49.456Z,97818.06
2022-11-21T15:57:15.592Z,97814.92
2022-11-21T15:59:55.573Z,97816.39
2022-11-21T16:03:01.648Z,97814.84
2022-11-21T16:06:07.723Z,97813.79
2022-11-21T16:09:14.092Z,97814.89
2022-11-21T16:12:18.821Z,97814.77
2022-11-21T16:15:25.703Z,97816.62
2022-11-21T16:18:32.766Z,97817.05
2022-11-21T16:21:39.150Z,97818.41
2022-11-21T16:24:43.646Z,97818.04
2022-11-21T16:27:49.793Z,97821.55
2022-11-21T16:30:55.905Z,97823.30
2022-11-21T16:34:02.688Z,97824.48
2022-11-21T16:37:08.756Z,97823.82
2022-11-21T16:40:15.275Z,97821.23
2022-11-21T16:43:21.334Z,97823.22
2022-11-21T16:46:28.111Z,97826.67
2022-11-21T16:49:34.206Z,97823.56
2022-11-21T16:52:40.794Z,97827.02
2022-11-21T16:55:46.923Z,97826.79
2022-11-21T16:58:53.223Z,97826.23
2022-11-21T17:01:57.748Z,97827.27
2022-11-21T17:05:03.708Z,97826.95
2022-11-21T17:08:09.897Z,97829.02
2022-11-21T17:11:18.250Z,97834.49
2022-11-21T17:14:24.273Z,97834.13
2022-11-21T17:17:30.333Z,97833.55
2022-11-21T17:20:36.472Z,97831.95
2022-11-21T17:23:44.385Z,97833.42
2022-11-21T17:26:50.614Z,97830.15
2022-11-21T17:29:56.673Z,97834.95
2022-11-21T17:33:03.397Z,97837.63
2022-11-21T17:36:13.227Z,97838.96
2022-11-21T17:39:19.314Z,97838.41
2022-11-21T17:42:27.074Z,97839.71
2022-11-21T17:45:35.565Z,97840.13
2022-11-21T17:48:41.976Z,97843.93
2022-11-21T17:51:51.376Z,97847.33
2022-11-21T17:55:00.369Z,97849.71
2022-11-21T17:58:06.509Z,97848.11
2022-11-21T18:01:19.288Z,97846.45
2022-11-21T18:04:26.214Z,97845.11
2022-11-21T18:07:35.086Z,97840.11
2022-11-21T18:10:43.914Z,97840.04
2022-11-21T18:13:51.270Z,97842.52
2022-11-21T18:16:58.326Z,97837.61
2022-11-21T18:20:04.481Z,97834.27
2022-11-21T18:23:10.489Z,97835.63
2022-11-21T18:26:20.726Z,97838.29
2022-11-21T18:29:36.300Z,97841.65
2022-11-21T18:32:43.389Z,97840.61
2022-11-21T18:35:49.497Z,97837.71
2022-11-21T18:39:02.283Z,97837.19
2022-11-21T18:42:11.331Z,97838.55
2022-11-21T18:45:15.789Z,97840.54
2022-11-21T18:48:24.009Z,97842.27
2022-11-21T18:51:32.125Z,97843.13
2022-11-21T18:54:38.393Z,97843.19
2022-11-21T18:57:44.541Z,97841.54
2022-11-21T19:00:50.640Z,97844.02
2022-11-21T19:03:57.773Z,97843.34
2022-11-21T19:07:03.940Z,97845.43
2022-11-21T19:13:37.888Z,97843.98
2022-11-21T19:16:43.963Z,97845.03
2022-11-21T19:19:50.071Z,97848.03
2022-11-21T19:22:54.637Z,97849.84
2022-11-21T19:26:04.082Z,97849.17
2022-11-21T19:29:10.521Z,97849.25
2022-11-21T19:32:16.655Z,97854.30
2022-11-21T19:35:24.574Z,97856.66
2022-11-21T19:38:31.005Z,97858.90
2022-11-21T19:41:37.377Z,97858.53
2022-11-21T19:44:41.824Z,97858.19
2022-11-21T19:47:49.126Z,97856.38
2022-11-21T19:50:59.822Z,97855.93
2022-11-21T19:54:06.974Z,97860.69
2022-11-21T19:57:14.171Z,97863.89
2022-11-21T20:00:22.883Z,97865.94
2022-11-21T20:03:29.076Z,97866.47
2022-11-21T20:06:37.220Z,97868.58
2022-11-21T20:09:43.500Z,97868.58
2022-11-21T20:12:49.597Z,97872.48
2022-11-21T20:15:55.653Z,97875.77
2022-11-21T20:19:03.963Z,97879.00
2022-11-21T20:22:10.047Z,97882.77
2022-11-21T20:25:16.268Z,97888.34
2022-11-21T20:28:20.729Z,97890.89
2022-11-21T20:31:28.194Z,97891.36
2022-11-21T20:34:35.979Z,97890.77
2022-11-21T20:37:42.065Z,97891.26
2022-11-21T20:40:54.904Z,97891.77
2022-11-21T20:47:28.978Z,97896.71
2022-11-21T20:51:20.880Z,97893.35
2022-11-21T20:54:03.573Z,97884.51
2022-11-21T20:57:14.790Z,97890.10
2022-11-21T21:00:22.702Z,97895.35
2022-11-21T21:03:30.213Z,97897.79
2022-11-21T21:06:37.701Z,97898.18
2022-11-21T21:09:43.925Z,97896.44
2022-11-21T21:12:50.029Z,97895.77
2022-11-21T21:15:56.240Z,97900.10
2022-11-21T21:19:00.736Z,97904.45
2022-11-21T21:22:09.289Z,97902.50
2022-11-21T21:25:15.433Z,97905.23
2022-11-21T21:28:21.506Z,97905.18
2022-11-21T21:31:28.210Z,97905.24
2022-11-21T21:34:34.250Z,97908.34
2022-11-21T21:37:40.689Z,97906.34
2022-11-21T21:40:46.847Z,97905.17
2022-11-21T21:43:53.936Z,97900.94
2022-11-21T21:47:00.011Z,97901.46
2022-11-21T21:50:11.423Z,97901.11
2022-11-21T21:53:20.585Z,97904.73
2022-11-21T21:56:29.067Z,97903.72
2022-11-21T21:59:35.204Z,97903.55
2022-11-21T22:02:41.217Z,97906.83
2022-11-21T22:05:47.263Z,97906.80
2022-11-21T22:08:54.659Z,97910.07
2022-11-21T22:12:01.806Z,97909.16
2022-11-21T22:15:09.702Z,97912.83
2022-11-21T22:18:15.722Z,97911.65
2022-11-21T22:21:23.758Z,97910.23
2022-11-21T22:24:29.865Z,97908.00
2022-11-21T22:27:36.086Z,97906.91
2022-11-21T22:30:42.449Z,97911.52
2022-11-21T22:33:48.990Z,97913.30
2022-11-21T22:36:55.253Z,97914.66
2022-11-21T22:40:01.492Z,97908.48
2022-11-21T22:43:06.605Z,97906.13
2022-11-21T22:46:13.780Z,97907.44
2022-11-21T22:49:20.303Z,97906.42
2022-11-21T22:52:26.780Z,97906.59
2022-11-21T22:55:32.909Z,97907.39
2022-11-21T22:58:40.789Z,97907.64
2022-11-21T23:01:47.025Z,97907.45
2022-11-21T23:04:53.092Z,97906.98
2022-11-21T23:07:59.164Z,97907.42
2022-11-21T23:11:10.202Z,97907.38
2022-11-21T23:14:16.617Z,97899.61
2022-11-21T23:17:21.322Z,97892.77
2022-11-21T23:20:27.498Z,97894.61
2022-11-21T23:23:33.971Z,97888.83
2022-11-21T23:26:40.538Z,97883.84
2022-11-21T23:29:46.637Z,97882.12
2022-11-21T23:32:52.851Z,97881.09
2022-11-21T23:35:57.482Z,97885.18
2022-11-21T23:39:03.712Z,97881.65
2022-11-21T23:42:09.907Z,97873.36
2022-11-21T23:45:16.298Z,97872.48
2022-11-21T23:48:21.267Z,97871.21
2022-11-21T23:51:27.634Z,97865.09
2022-11-21T23:54:32.145Z,97864.67
2022-11-21T23:57:38.276Z,97864.41
